« Back
NWS Peachtree City, Ga » Text Product » AHN Terminal Aerodrome Forecast


Printer-friendly Version
Current Version              Previous Versions:   1  2  3  4  5  6  7  8  9  

Terminal Aerodrome Forecast

101
FTUS42 KFFC 300538
TAFAHN
TAF
KAHN 300538Z 3006/3106 00000KT P6SM SKC
     FM301700 33005KT P6SM FEW040
     FM310100 02003KT P6SM FEW250=

USA.gov is the U.S. government's official web portal to all federal, state and local government web resources and services.